Time;durP1;ratioP1;P1;durP2;ratioP2;P2;SDS_P1;SDS_P2;PMS_P1;PMS_P2;Temp;Humidity;BMP_temperature;BMP_pressure;BME280_temperature;BME280_humidity;BME280_pressure;Samples;Min_cycle;Max_cycle;Signal;HPM_P1;HPM_P2
2021/06/15 00:00:45;;;;;;;9.47;6.40;;;24.50;61.00;;;;;;4984674;28;20580;-88
2021/06/15 00:03:12;;;;;;;7.83;7.07;;;24.40;61.30;;;;;;4984835;28;20492;-81
2021/06/15 00:05:40;;;;;;;11.70;6.87;;;24.30;61.70;;;;;;4983807;28;20480;-83
2021/06/15 00:08:08;;;;;;;7.70;6.77;;;24.30;62.00;;;;;;4984918;28;20561;-85
2021/06/15 00:10:36;;;;;;;8.50;6.40;;;24.20;62.00;;;;;;4984159;28;20480;-88
2021/06/15 00:13:06;;;;;;;8.67;6.80;;;24.30;62.30;;;;;;5002786;28;20569;-85
2021/06/15 00:15:41;;;;;;;6.90;6.40;;;24.30;62.20;;;;;;5629662;23;20479;-85
2021/06/15 00:18:30;;;;;;;10.83;7.30;;;24.30;62.60;;;;;;4956333;28;20464;-86
2021/06/15 00:21:14;;;;;;;7.90;7.10;;;24.20;62.70;;;;;;4941535;28;20489;-85
2021/06/15 00:23:53;;;;;;;8.87;7.90;;;24.20;62.90;;;;;;4963211;28;20459;-85
2021/06/15 00:26:30;;;;;;;13.53;6.60;;;24.20;63.00;;;;;;4945926;28;20456;-83
2021/06/15 00:28:57;;;;;;;8.30;6.83;;;24.20;63.30;;;;;;4925106;29;20460;-84
2021/06/15 00:31:31;;;;;;;11.90;7.23;;;24.20;63.60;;;;;;4943184;28;21885;-84
2021/06/15 00:34:07;;;;;;;9.10;7.47;;;24.00;63.90;;;;;;4942183;29;20810;-84
2021/06/15 00:36:34;;;;;;;11.13;6.97;;;24.00;64.30;;;;;;4927320;29;20865;-84
2021/06/15 00:39:07;;;;;;;11.37;7.40;;;24.00;64.70;;;;;;4927279;29;20452;-84
2021/06/15 00:41:47;;;;;;;9.60;7.90;;;24.00;64.60;;;;;;4944444;29;20453;-84
2021/06/15 00:44:26;;;;;;;9.27;7.33;;;24.00;64.60;;;;;;4943369;28;20555;-86
2021/06/15 00:47:14;;;;;;;7.77;7.00;;;24.00;65.00;;;;;;4931544;29;20444;-85
2021/06/15 00:49:46;;;;;;;9.53;8.33;;;23.90;65.60;;;;;;4955420;28;20445;-87
2021/06/15 00:52:13;;;;;;;10.43;8.40;;;23.90;65.70;;;;;;4963021;28;20472;-89
2021/06/15 00:54:49;;;;;;;9.33;8.33;;;23.80;65.80;;;;;;4951728;28;20468;-87
2021/06/15 00:57:27;;;;;;;11.00;7.60;;;23.90;65.90;;;;;;4952088;28;20488;-88
2021/06/15 01:00:15;;;;;;;9.10;8.17;;;23.80;66.00;;;;;;4953334;28;20552;-86
2021/06/15 01:03:01;;;;;;;10.17;7.70;;;23.80;66.20;;;;;;4951015;28;20560;-85
2021/06/15 01:05:55;;;;;;;8.10;7.30;;;23.80;66.40;;;;;;4945917;28;20472;-84
2021/06/15 01:09:10;;;;;;;8.30;7.60;;;23.80;66.70;;;;;;4929688;29;20466;-84
2021/06/15 01:15:09;;;;;;;9.93;7.83;;;23.60;67.30;;;;;;4943710;28;20481;-84
2021/06/15 01:18:04;;;;;;;11.03;8.77;;;23.70;68.20;;;;;;4925969;28;174437;-85
2021/06/15 01:20:46;;;;;;;8.67;7.87;;;23.70;67.30;;;;;;4923893;28;20489;-86
2021/06/15 01:23:54;;;;;;;10.17;8.10;;;23.70;67.20;;;;;;4934215;29;20560;-85
2021/06/15 01:26:50;;;;;;;8.70;7.87;;;23.70;67.60;;;;;;4951310;28;20568;-85
2021/06/15 01:29:38;;;;;;;9.40;7.57;;;23.60;68.00;;;;;;4948146;28;20445;-87
2021/06/15 01:32:26;;;;;;;9.20;7.80;;;23.60;67.90;;;;;;4952102;28;20471;-87
2021/06/15 01:35:10;;;;;;;9.00;7.90;;;23.60;68.10;;;;;;4967339;28;20476;-87
2021/06/15 01:38:05;;;;;;;9.20;8.20;;;23.80;67.40;;;;;;4952718;29;20445;-83
2021/06/15 01:41:13;;;;;;;8.43;7.63;;;23.70;67.90;;;;;;4942621;29;20504;-81
2021/06/15 01:43:50;;;;;;;9.03;8.20;;;23.60;68.30;;;;;;4942629;28;20531;-87
2021/06/15 01:47:12;;;;;;;9.50;8.30;;;23.60;68.50;;;;;;4932224;28;20469;-88
2021/06/15 01:50:05;;;;;;;9.87;8.67;;;23.60;68.70;;;;;;4951672;29;20478;-82
2021/06/15 01:52:43;;;;;;;8.27;7.57;;;23.50;69.30;;;;;;4959907;28;20484;-87
2021/06/15 01:55:30;;;;;;;8.67;7.83;;;23.40;69.60;;;;;;4952463;29;20847;-87
2021/06/15 01:58:23;;;;;;;9.27;8.47;;;23.40;70.20;;;;;;4936023;29;20497;-82
2021/06/15 02:01:06;;;;;;;9.63;7.40;;;23.20;70.90;;;;;;4933326;29;20727;-82
2021/06/15 02:03:44;;;;;;;9.47;8.57;;;23.10;71.60;;;;;;4948575;28;20472;-84
2021/06/15 02:06:32;;;;;;;9.20;8.30;;;23.00;72.30;;;;;;4929660;29;20476;-84
2021/06/15 02:09:06;;;;;;;12.97;9.00;;;22.90;72.80;;;;;;4947560;28;20452;-84
2021/06/15 02:11:49;;;;;;;11.20;9.07;;;22.90;73.40;;;;;;4946561;28;20468;-86
2021/06/15 02:14:35;;;;;;;10.50;9.43;;;22.90;74.00;;;;;;4932163;28;20488;-87
2021/06/15 02:17:20;;;;;;;9.83;8.90;;;22.80;74.40;;;;;;4930262;29;20457;-85
2021/06/15 02:19:51;;;;;;;12.00;8.77;;;22.80;74.70;;;;;;4929555;29;20512;-85
2021/06/15 02:22:23;;;;;;;11.60;10.13;;;22.80;75.10;;;;;;4945083;28;20647;-84
2021/06/15 02:24:56;;;;;;;15.23;9.80;;;22.70;75.40;;;;;;4934675;28;20479;-86
2021/06/15 02:27:28;;;;;;;9.37;8.40;;;22.60;75.90;;;;;;4933054;28;21327;-82
2021/06/15 02:29:58;;;;;;;12.57;9.67;;;22.60;76.40;;;;;;4928819;29;20469;-82
2021/06/15 02:32:31;;;;;;;13.30;9.40;;;22.60;76.80;;;;;;4943304;28;20461;-85
2021/06/15 02:35:06;;;;;;;10.50;9.50;;;22.50;77.10;;;;;;4943220;28;20512;-87
2021/06/15 02:37:49;;;;;;;10.70;9.73;;;22.50;77.30;;;;;;4928357;29;20456;-86
2021/06/15 02:40:26;;;;;;;9.77;8.77;;;22.40;77.70;;;;;;4944533;28;20492;-86
2021/06/15 02:42:55;;;;;;;13.50;10.23;;;22.40;78.50;;;;;;4931138;29;20433;-82
2021/06/15 02:45:27;;;;;;;11.87;9.87;;;22.40;78.70;;;;;;4950434;28;20481;-85
2021/06/15 02:47:55;;;;;;;12.67;10.00;;;22.40;79.10;;;;;;4945118;28;20449;-85
2021/06/15 02:50:24;;;;;;;12.47;11.13;;;22.30;79.50;;;;;;4943081;28;20498;-87
2021/06/15 02:53:26;;;;;;;11.77;10.67;;;22.20;79.90;;;;;;4944722;28;20532;-83
2021/06/15 02:56:04;;;;;;;13.43;10.00;;;22.20;80.50;;;;;;4925868;29;20552;-84
2021/06/15 02:58:32;;;;;;;13.53;10.90;;;22.20;81.00;;;;;;4944311;28;20583;-87
2021/06/15 03:00:59;;;;;;;12.47;11.33;;;22.20;81.50;;;;;;4925218;29;20527;-85
2021/06/15 03:03:29;;;;;;;12.97;11.53;;;22.20;81.80;;;;;;4911110;29;21177;-84
2021/06/15 03:05:57;;;;;;;13.00;11.60;;;22.30;81.80;;;;;;4941099;28;20473;-83
2021/06/15 03:08:24;;;;;;;14.13;12.37;;;22.30;82.00;;;;;;4928684;29;20544;-85
2021/06/15 03:10:51;;;;;;;12.50;10.57;;;22.40;81.60;;;;;;4927045;29;20731;-85
2021/06/15 03:13:35;;;;;;;14.47;11.90;;;22.30;82.10;;;;;;4942936;28;20487;-83
2021/06/15 03:16:08;;;;;;;15.10;12.20;;;22.30;82.60;;;;;;4943301;28;20497;-84
2021/06/15 03:18:44;;;;;;;15.60;12.20;;;22.20;83.50;;;;;;4928387;28;20488;-87
2021/06/15 03:21:20;;;;;;;14.43;12.47;;;22.10;84.50;;;;;;4946590;29;20485;-83
2021/06/15 03:24:02;;;;;;;13.60;12.20;;;22.10;84.90;;;;;;4926744;28;20449;-85
2021/06/15 03:26:39;;;;;;;13.10;11.80;;;22.10;85.10;;;;;;4945745;28;20448;-84
2021/06/15 03:29:11;;;;;;;17.47;11.90;;;22.10;85.30;;;;;;4943614;28;20449;-84
2021/06/15 03:31:42;;;;;;;14.83;13.00;;;22.00;85.50;;;;;;4924786;28;20465;-85
2021/06/15 03:34:14;;;;;;;13.10;11.80;;;22.00;86.10;;;;;;4943228;28;20879;-83
2021/06/15 03:36:42;;;;;;;14.97;12.10;;;22.10;86.10;;;;;;4930301;28;20469;-82
2021/06/15 03:39:14;;;;;;;15.87;12.40;;;22.10;86.20;;;;;;4931959;29;20461;-84
2021/06/15 03:41:43;;;;;;;16.23;11.33;;;22.10;86.40;;;;;;4926855;28;20483;-84
2021/06/15 03:44:12;;;;;;;12.90;11.60;;;22.00;86.70;;;;;;4942491;28;20476;-86
2021/06/15 03:46:40;;;;;;;15.50;12.57;;;22.00;87.40;;;;;;4943635;28;20467;-83
2021/06/15 03:49:10;;;;;;;12.67;11.47;;;21.90;87.80;;;;;;4925131;29;20984;-84
2021/06/15 03:51:41;;;;;;;13.40;12.00;;;21.90;88.30;;;;;;4925102;28;20525;-83
2021/06/15 03:54:11;;;;;;;14.00;12.60;;;21.90;88.70;;;;;;4924680;28;20552;-82
2021/06/15 03:56:41;;;;;;;14.67;13.17;;;21.90;89.10;;;;;;4943257;29;20460;-84
2021/06/15 03:59:15;;;;;;;15.90;13.70;;;21.90;89.60;;;;;;4930743;29;20519;-82
2021/06/15 04:01:45;;;;;;;16.10;13.60;;;21.90;90.00;;;;;;4943576;28;20489;-84
2021/06/15 04:04:15;;;;;;;14.10;12.50;;;21.80;90.20;;;;;;4926500;28;22238;-82
2021/06/15 04:06:49;;;;;;;15.73;13.77;;;21.80;90.50;;;;;;4946313;28;20464;-85
2021/06/15 04:09:26;;;;;;;17.27;12.50;;;21.80;90.70;;;;;;4952574;28;20457;-88
2021/06/15 04:11:55;;;;;;;16.20;14.33;;;21.80;90.90;;;;;;4952988;29;20456;-84
2021/06/15 04:14:23;;;;;;;14.47;13.10;;;21.80;91.10;;;;;;4936144;29;20469;-85
2021/06/15 04:16:51;;;;;;;15.93;13.50;;;21.70;91.20;;;;;;4927575;29;20461;-85
2021/06/15 04:19:32;;;;;;;15.47;13.87;;;21.70;91.30;;;;;;4943570;28;20457;-85
2021/06/15 04:22:01;;;;;;;16.43;14.00;;;21.80;91.50;;;;;;4938009;29;20473;-86
2021/06/15 04:24:32;;;;;;;15.83;12.83;;;21.80;91.60;;;;;;4949962;29;20587;-85
2021/06/15 04:26:59;;;;;;;14.50;13.10;;;21.80;91.70;;;;;;4943566;29;20504;-85
2021/06/15 04:29:27;;;;;;;16.00;14.37;;;21.80;91.70;;;;;;4961490;28;20442;-86
2021/06/15 04:31:59;;;;;;;16.83;14.93;;;21.90;91.90;;;;;;4962161;28;20986;-82
2021/06/15 04:34:27;;;;;;;16.10;14.47;;;21.80;91.90;;;;;;4949341;28;20497;-84
2021/06/15 04:37:02;;;;;;;18.10;14.87;;;21.70;92.20;;;;;;4932922;29;20457;-82
2021/06/15 04:39:31;;;;;;;16.47;14.87;;;21.70;92.40;;;;;;4949433;29;20459;-84
2021/06/15 04:42:05;;;;;;;16.80;15.03;;;21.70;92.50;;;;;;4965746;28;20464;-87
2021/06/15 04:44:38;;;;;;;19.10;14.97;;;21.70;92.80;;;;;;4968125;28;20537;-86
2021/06/15 04:47:21;;;;;;;15.87;14.30;;;21.70;92.80;;;;;;4969479;29;20464;-87
2021/06/15 04:50:02;;;;;;;16.03;14.40;;;21.70;92.80;;;;;;4947881;29;20463;-82
2021/06/15 04:52:31;;;;;;;18.47;14.83;;;21.80;93.00;;;;;;4953075;29;20468;-82
2021/06/15 04:55:01;;;;;;;16.27;14.57;;;21.80;92.90;;;;;;4944677;29;20596;-84
2021/06/15 04:57:37;;;;;;;18.00;15.33;;;21.80;93.00;;;;;;4936124;29;20471;-88
2021/06/15 05:00:05;;;;;;;19.80;14.90;;;21.80;93.10;;;;;;4943443;29;20459;-84
2021/06/15 05:02:35;;;;;;;16.80;15.10;;;21.80;93.20;;;;;;4936741;28;20437;-84
2021/06/15 05:05:09;;;;;;;16.90;15.10;;;21.80;93.30;;;;;;4948317;28;20484;-83
2021/06/15 05:07:39;;;;;;;17.57;15.87;;;21.80;93.40;;;;;;4931939;29;20470;-84
2021/06/15 05:10:07;;;;;;;19.93;15.70;;;21.80;93.50;;;;;;4924881;29;20445;-84
2021/06/15 05:12:40;;;;;;;16.80;15.20;;;21.70;93.60;;;;;;4951731;28;20449;-85
2021/06/15 05:15:13;;;;;;;18.67;16.77;;;21.70;93.80;;;;;;4940521;29;20480;-86
2021/06/15 05:17:47;;;;;;;16.93;15.23;;;21.80;93.90;;;;;;4973222;28;20453;-87
2021/06/15 05:20:15;;;;;;;16.40;14.90;;;21.80;94.10;;;;;;4971839;29;20516;-86
2021/06/15 05:23:02;;;;;;;16.77;15.20;;;21.80;94.10;;;;;;4960563;28;20480;-84
2021/06/15 05:25:58;;;;;;;20.13;16.57;;;21.90;94.10;;;;;;4949689;28;20474;-84
2021/06/15 05:29:07;;;;;;;17.73;15.77;;;22.00;93.60;;;;;;4954056;28;20492;-84
2021/06/15 05:31:48;;;;;;;22.60;16.63;;;22.00;93.70;;;;;;4880070;29;20567;-83
2021/06/15 05:34:25;;;;;;;23.27;16.30;;;21.90;94.10;;;;;;4901614;29;20548;-83
2021/06/15 05:36:54;;;;;;;16.27;14.83;;;22.10;93.90;;;;;;4956467;29;20452;-83
2021/06/15 05:39:30;;;;;;;17.83;16.13;;;22.00;94.10;;;;;;4969615;29;21742;-85
2021/06/15 05:41:57;;;;;;;19.53;15.53;;;22.40;93.70;;;;;;4971181;29;20472;-84
2021/06/15 05:44:32;;;;;;;18.20;15.73;;;22.60;93.00;;;;;;4955987;29;20464;-87
2021/06/15 05:47:20;;;;;;;18.90;16.20;;;22.20;93.40;;;;;;4954458;29;20462;-86
2021/06/15 05:49:52;;;;;;;16.37;14.67;;;22.20;94.00;;;;;;4961057;28;20465;-84
2021/06/15 05:52:19;;;;;;;17.70;16.00;;;22.30;93.60;;;;;;4971104;28;20503;-85
2021/06/15 05:54:51;;;;;;;17.70;15.90;;;22.60;93.30;;;;;;4970594;28;20481;-85
2021/06/15 05:57:34;;;;;;;18.10;16.20;;;22.50;93.10;;;;;;4968973;28;20457;-89
2021/06/15 06:00:16;;;;;;;22.40;15.70;;;22.50;93.20;;;;;;4949760;28;20465;-89
2021/06/15 06:10:21;;;;;;;18.10;16.20;;;22.50;93.70;;;;;;4938454;29;20898;-83
2021/06/15 06:13:14;;;;;;;16.70;15.00;;;22.50;93.60;;;;;;4944546;28;20492;-83
2021/06/15 06:19:53;;;;;;;17.27;15.60;;;23.00;92.60;;;;;;4930839;29;20448;-82
2021/06/15 06:23:00;;;;;;;18.77;16.80;;;22.80;92.80;;;;;;4943488;28;20487;-84
2021/06/15 06:25:41;;;;;;;24.53;16.17;;;22.90;93.10;;;;;;4852511;29;20566;-84
2021/06/15 06:28:07;;;;;;;19.53;16.37;;;22.90;93.10;;;;;;4867004;29;20468;-84
2021/06/15 06:30:36;;;;;;;17.80;15.30;;;22.90;93.20;;;;;;4852004;29;20671;-86
2021/06/15 06:33:12;;;;;;;16.73;15.13;;;23.00;93.10;;;;;;4855695;29;20464;-83
2021/06/15 06:35:54;;;;;;;19.53;16.70;;;23.20;92.80;;;;;;4868028;29;20480;-85
2021/06/15 06:38:51;;;;;;;;;;;;;;;;;;;;;
2021/06/15 06:42:01;;;;;;;18.17;16.30;;;23.30;91.90;;;;;;4868562;29;20480;-84
2021/06/15 06:44:42;;;;;;;18.07;16.10;;;23.30;92.00;;;;;;4860821;29;20479;-86
2021/06/15 06:47:20;;;;;;;18.97;16.93;;;23.30;92.20;;;;;;4871112;29;20551;-85
2021/06/15 06:49:51;;;;;;;18.77;15.30;;;23.50;92.10;;;;;;4867516;29;20844;-85
2021/06/15 06:52:26;;;;;;;17.47;15.60;;;23.60;92.00;;;;;;4866147;29;20461;-83
2021/06/15 06:54:59;;;;;;;16.77;15.00;;;23.50;92.00;;;;;;4856030;29;20483;-84
2021/06/15 06:57:26;;;;;;;18.10;16.33;;;23.40;91.50;;;;;;4933999;29;20458;-83
2021/06/15 07:00:32;;;;;;;16.60;14.90;;;23.40;91.50;;;;;;4935332;28;20469;-86
2021/06/15 07:03:05;;;;;;;17.37;15.70;;;23.30;91.60;;;;;;4931347;29;20457;-85
2021/06/15 07:06:07;;;;;;;18.27;15.90;;;23.40;91.50;;;;;;4944649;28;20475;-84
2021/06/15 07:08:55;;;;;;;18.43;16.63;;;23.80;90.80;;;;;;4938133;29;20440;-88
2021/06/15 07:11:40;;;;;;;17.10;15.40;;;24.20;90.10;;;;;;4935192;28;20457;-83
2021/06/15 07:14:30;;;;;;;18.47;16.30;;;24.30;89.40;;;;;;4948857;28;20818;-86
2021/06/15 07:17:26;;;;;;;16.73;15.13;;;24.20;89.20;;;;;;4945079;28;20507;-83
2021/06/15 07:20:16;;;;;;;18.40;15.40;;;24.20;88.80;;;;;;4917865;29;20452;-84
2021/06/15 07:23:09;;;;;;;15.13;13.53;;;24.30;88.30;;;;;;4939139;28;20491;-84
2021/06/15 07:26:10;;;;;;;20.07;15.50;;;24.40;88.00;;;;;;4905058;28;20461;-83
2021/06/15 07:32:11;;;;;;;16.50;14.80;;;24.50;87.20;;;;;;4937064;29;20488;-84
2021/06/15 07:35:16;;;;;;;15.00;13.50;;;24.60;87.10;;;;;;4953497;28;20500;-83
2021/06/15 07:38:02;;;;;;;16.20;14.43;;;24.50;86.30;;;;;;4938690;28;20432;-84
2021/06/15 07:41:41;;;;;;;16.53;14.93;;;24.50;85.90;;;;;;4937553;28;20432;-84
2021/06/15 07:44:26;;;;;;;15.83;13.57;;;24.70;85.40;;;;;;4968648;23;20519;-83
2021/06/15 07:47:21;;;;;;;15.13;13.63;;;24.60;86.30;;;;;;4924439;29;20450;-85
2021/06/15 07:50:40;;;;;;;15.80;13.90;;;24.90;85.30;;;;;;4908348;29;20462;-85
2021/06/15 07:53:57;;;;;;;16.07;14.10;;;25.10;84.30;;;;;;4925804;29;20607;-84
2021/06/15 07:59:17;;;;;;;16.13;12.20;;;25.40;82.20;;;;;;5032826;23;20499;-84
2021/06/15 08:02:03;;;;;;;13.97;11.90;;;25.60;80.10;;;;;;4874114;29;20488;-82
2021/06/15 08:08:03;;;;;;;14.17;12.67;;;25.10;80.90;;;;;;4874346;29;20540;-83
2021/06/15 08:10:56;;;;;;;14.00;12.07;;;25.50;80.60;;;;;;4874176;29;20444;-83
2021/06/15 08:13:34;;;;;;;14.60;12.50;;;25.70;79.80;;;;;;4876498;29;20464;-85
2021/06/15 08:20:15;;;;;;;12.57;11.37;;;25.80;80.10;;;;;;4872143;29;20492;-83
2021/06/15 08:22:56;;;;;;;10.63;9.57;;;26.00;78.70;;;;;;4874709;29;21382;-86
2021/06/15 08:29:27;;;;;;;10.17;8.87;;;25.70;78.10;;;;;;4903801;29;20426;-87
2021/06/15 08:35:44;;;;;;;9.60;8.60;;;26.20;76.50;;;;;;4929475;29;20478;-85
2021/06/15 08:38:30;;;;;;;9.60;8.70;;;26.10;77.50;;;;;;4921643;29;20481;-86
2021/06/15 08:41:18;;;;;;;10.17;8.70;;;26.20;77.10;;;;;;4947095;28;20457;-84
2021/06/15 08:44:13;;;;;;;9.07;7.40;;;26.30;77.30;;;;;;4953997;28;20513;-85
2021/06/15 08:46:52;;;;;;;9.73;8.60;;;27.10;75.30;;;;;;4940509;28;20451;-84
2021/06/15 08:54:19;;;;;;;9.63;8.17;;;26.60;74.80;;;;;;4819622;29;20498;-86
2021/06/15 08:57:06;;;;;;;7.27;6.57;;;26.90;73.50;;;;;;4823684;29;21014;-84
2021/06/15 08:59:40;;;;;;;9.10;7.30;;;27.10;71.20;;;;;;4898787;29;20491;-86
2021/06/15 09:02:15;;;;;;;9.57;7.10;;;28.00;70.10;;;;;;4929830;28;20499;-85
2021/06/15 09:06:20;;;;;;;;;;;;;;;;;;;;;
2021/06/15 09:12:46;;;;;;;8.37;5.30;;;28.30;66.20;;;;;;4912996;29;20467;-85
2021/06/15 09:19:26;;;;;;;7.60;5.70;;;29.00;63.80;;;;;;4901812;29;20459;-84
2021/06/15 09:26:13;;;;;;;7.33;6.07;;;29.00;63.20;;;;;;4923640;29;20469;-85
2021/06/15 09:44:13;;;;;;;9.20;5.80;;;31.00;56.50;;;;;;4975888;28;20443;-85
2021/06/15 09:46:56;;;;;;;5.83;5.00;;;31.10;56.70;;;;;;4954045;29;20465;-82
2021/06/15 09:54:03;;;;;;;4.90;4.50;;;32.60;53.40;;;;;;4973102;28;20472;-83
2021/06/15 10:04:55;;;;;;;11.90;5.50;;;32.80;50.10;;;;;;4929970;29;21102;-85
2021/06/15 10:07:30;;;;;;;5.90;3.60;;;33.20;49.80;;;;;;4916095;29;20530;-88
2021/06/15 10:18:24;;;;;;;4.93;4.00;;;33.50;49.30;;;;;;4894207;29;20516;-89
2021/06/15 10:20:54;;;;;;;4.57;3.70;;;34.30;47.10;;;;;;4901222;29;20538;-84
2021/06/15 10:23:33;;;;;;;4.73;4.00;;;33.80;47.40;;;;;;4926258;29;21503;-88
2021/06/15 10:26:02;;;;;;;4.37;4.00;;;34.40;45.80;;;;;;4956423;28;20499;-88
2021/06/15 10:28:36;;;;;;;4.47;4.07;;;33.90;46.50;;;;;;4968045;28;20468;-85
2021/06/15 10:35:06;;;;;;;4.30;3.70;;;33.50;47.30;;;;;;4898345;28;20492;-87
2021/06/15 10:38:02;;;;;;;4.77;4.00;;;33.80;47.40;;;;;;4948819;28;20535;-85
2021/06/15 10:41:02;;;;;;;6.33;4.17;;;33.70;47.90;;;;;;4935600;28;20448;-84
2021/06/15 10:43:37;;;;;;;4.83;4.10;;;33.90;47.50;;;;;;4936689;28;20480;-84
2021/06/15 10:47:15;;;;;;;;;;;;;;;;;;;;;
2021/06/15 11:13:09;;;;;;;4.80;4.40;;;33.50;47.70;;;;;;4809431;29;20473;-84
2021/06/15 11:16:02;;;;;;;6.37;3.97;;;33.10;48.80;;;;;;4818218;29;20485;-85
2021/06/15 11:18:46;;;;;;;5.20;4.10;;;33.00;49.10;;;;;;4947066;28;21268;-86
2021/06/15 11:21:50;;;;;;;12.37;4.30;;;32.60;49.00;;;;;;4949173;28;20464;-86
2021/06/15 11:24:55;;;;;;;7.20;3.53;;;32.40;49.70;;;;;;4946215;28;20475;-86
2021/06/15 11:27:57;;;;;;;5.83;3.73;;;32.50;49.20;;;;;;4875959;29;20471;-89
2021/06/15 11:31:24;;;;;;;;;;;;;;;;;;;;;
2021/06/15 11:34:44;;;;;;;4.13;3.73;;;33.40;47.10;;;;;;4835831;29;20550;-86
2021/06/15 11:37:46;;;;;;;6.43;4.00;;;32.20;49.10;;;;;;4829630;29;20805;-85
2021/06/15 11:47:54;;;;;;;4.93;3.43;;;31.90;49.20;;;;;;4885873;29;20548;-86
2021/06/15 11:50:55;;;;;;;5.57;3.47;;;31.90;48.20;;;;;;4868317;29;20615;-86
2021/06/15 11:57:03;;;;;;;6.13;3.13;;;32.50;47.30;;;;;;4848941;29;20449;-86
2021/06/15 11:59:30;;;;;;;5.13;3.47;;;33.10;46.90;;;;;;4858344;29;21125;-87
2021/06/15 12:01:59;;;;;;;3.10;2.83;;;32.50;47.20;;;;;;4856507;29;20485;-83
2021/06/15 12:04:25;;;;;;;6.93;3.00;;;32.10;47.30;;;;;;4855862;29;20613;-85
2021/06/15 12:07:16;;;;;;;3.43;3.00;;;32.00;47.70;;;;;;4857429;29;20449;-87
2021/06/15 12:10:08;;;;;;;3.50;3.20;;;32.50;47.00;;;;;;4865777;29;20589;-85
2021/06/15 12:12:54;;;;;;;4.37;3.00;;;32.50;46.50;;;;;;4903762;29;20474;-83
2021/06/15 12:15:33;;;;;;;2.93;2.37;;;32.90;46.20;;;;;;4904714;29;20538;-86
2021/06/15 12:18:04;;;;;;;3.00;2.70;;;33.10;45.80;;;;;;4910300;29;20455;-84
2021/06/15 12:20:34;;;;;;;5.50;2.80;;;33.30;45.30;;;;;;4892793;29;20834;-85
2021/06/15 12:23:25;;;;;;;2.77;2.57;;;33.70;44.80;;;;;;4891811;29;20483;-85
2021/06/15 12:29:38;;;;;;;4.63;2.93;;;33.50;43.90;;;;;;4867816;29;20449;-84
2021/06/15 12:35:48;;;;;;;;;;;;;;;;;;;;;
2021/06/15 12:42:57;;;;;;;6.10;2.53;;;33.90;43.00;;;;;;4905208;28;20491;-83
2021/06/15 12:45:39;;;;;;;3.73;2.70;;;32.90;45.20;;;;;;4950703;28;20502;-84
2021/06/15 12:56:30;;;;;;;5.57;3.10;;;32.50;45.30;;;;;;4851784;29;20525;-85
2021/06/15 13:09:32;;;;;;;3.67;2.80;;;33.00;44.80;;;;;;4673355;26;20482;-86
2021/06/15 13:15:56;;;;;;;4.83;2.30;;;32.00;45.50;;;;;;4963658;28;20442;-86
2021/06/15 13:22:31;;;;;;;6.50;3.10;;;31.60;45.90;;;;;;4966966;28;20524;-87
2021/06/15 13:25:07;;;;;;;3.07;2.87;;;31.50;46.50;;;;;;4958231;28;20532;-88
2021/06/15 13:27:50;;;;;;;5.33;2.60;;;31.50;46.70;;;;;;4963034;28;20449;-87
2021/06/15 13:30:49;;;;;;;3.13;2.43;;;31.50;46.60;;;;;;5009856;28;20489;-87
2021/06/15 13:37:55;;;;;;;3.77;3.17;;;32.30;45.30;;;;;;4946539;28;20505;-87
2021/06/15 13:44:47;;;;;;;2.90;2.60;;;32.00;46.00;;;;;;4936091;29;20532;-84
2021/06/15 13:48:13;;;;;;;;;;;;;;;;;;;;;
2021/06/15 13:51:11;;;;;;;4.60;3.47;;;31.40;46.50;;;;;;4927068;29;20431;-87
2021/06/15 13:53:53;;;;;;;4.20;2.97;;;31.80;46.50;;;;;;4976235;28;20454;-86
2021/06/15 13:56:55;;;;;;;5.03;3.03;;;31.80;46.60;;;;;;4982053;28;20454;-86
2021/06/15 13:59:29;;;;;;;3.40;3.10;;;31.50;46.60;;;;;;4986347;28;20485;-86
2021/06/15 14:02:38;;;;;;;3.27;2.80;;;31.90;46.30;;;;;;4982179;28;20496;-86
2021/06/15 14:05:47;;;;;;;3.90;3.43;;;31.90;46.10;;;;;;4990042;28;20485;-86
2021/06/15 14:08:35;;;;;;;2.83;2.63;;;31.50;46.30;;;;;;5007201;28;20447;-87
2021/06/15 14:15:15;;;;;;;5.17;3.50;;;31.60;46.40;;;;;;5004251;28;20489;-86
2021/06/15 14:17:46;;;;;;;4.70;3.00;;;31.30;47.00;;;;;;4987757;28;20492;-87
2021/06/15 14:20:25;;;;;;;3.80;2.83;;;31.10;47.50;;;;;;5005883;28;20529;-86
2021/06/15 14:22:55;;;;;;;6.00;3.60;;;30.90;47.50;;;;;;4982453;28;20498;-85
2021/06/15 14:25:46;;;;;;;4.63;3.37;;;30.90;47.20;;;;;;5000515;28;20501;-85
2021/06/15 14:29:25;;;;;;;3.60;3.30;;;31.00;47.30;;;;;;4983558;28;20473;-85
2021/06/15 14:31:59;;;;;;;3.23;3.03;;;31.00;47.60;;;;;;4931735;29;20463;-84
2021/06/15 14:34:27;;;;;;;5.73;2.70;;;31.10;47.30;;;;;;4933720;29;21850;-86
2021/06/15 14:37:02;;;;;;;3.00;2.73;;;31.10;47.60;;;;;;4971350;28;20446;-85
2021/06/15 14:39:29;;;;;;;3.07;2.77;;;31.20;47.30;;;;;;4980826;28;20462;-85
2021/06/15 14:41:56;;;;;;;5.37;2.97;;;31.20;46.80;;;;;;4981870;28;20451;-85
2021/06/15 14:44:24;;;;;;;4.33;2.83;;;31.00;47.20;;;;;;4982996;28;20485;-87
2021/06/15 14:46:52;;;;;;;2.80;2.60;;;30.90;47.50;;;;;;4982318;28;20462;-87
2021/06/15 14:49:19;;;;;;;4.60;3.37;;;30.80;47.60;;;;;;4999195;28;20462;-88
2021/06/15 14:51:47;;;;;;;5.97;3.37;;;30.60;48.00;;;;;;5001453;28;20458;-86
2021/06/15 14:54:14;;;;;;;6.70;2.80;;;30.50;48.10;;;;;;4988284;28;20489;-86
2021/06/15 14:56:41;;;;;;;3.90;2.93;;;30.80;48.00;;;;;;4988593;28;20454;-86
2021/06/15 14:59:08;;;;;;;3.83;2.80;;;30.80;48.20;;;;;;4989127;28;20537;-87
2021/06/15 15:01:50;;;;;;;3.27;2.97;;;30.60;48.20;;;;;;4985563;28;20488;-86
2021/06/15 15:04:50;;;;;;;3.70;3.00;;;30.50;47.70;;;;;;5003879;28;20590;-85
2021/06/15 15:07:46;;;;;;;4.40;2.70;;;30.30;48.30;;;;;;4984445;28;20521;-86
2021/06/15 15:10:22;;;;;;;5.90;2.67;;;30.30;48.70;;;;;;4987010;28;20442;-86
2021/06/15 15:13:29;;;;;;;4.77;3.27;;;30.30;48.80;;;;;;4982042;28;20437;-86
2021/06/15 15:16:05;;;;;;;4.27;3.10;;;30.20;48.90;;;;;;4987103;28;20481;-86
2021/06/15 15:18:33;;;;;;;4.80;3.10;;;30.10;48.90;;;;;;4986444;28;20552;-86
2021/06/15 15:21:08;;;;;;;3.33;2.77;;;30.20;49.10;;;;;;4985305;28;20454;-87
2021/06/15 15:31:16;;;;;;;2.73;2.53;;;30.70;48.30;;;;;;4971779;28;20267;-85
2021/06/15 15:33:57;;;;;;;;;;;;;;;;;;;;;
2021/06/15 15:36:36;;;;;;;3.53;3.23;;;30.40;48.40;;;;;;4999016;28;20593;-86
2021/06/15 15:39:06;;;;;;;3.70;3.40;;;30.30;48.30;;;;;;4993817;28;20466;-85
2021/06/15 15:41:36;;;;;;;3.43;3.03;;;30.10;49.10;;;;;;4991533;28;20446;-85
2021/06/15 15:44:12;;;;;;;3.90;2.97;;;30.00;49.60;;;;;;4977919;28;20513;-87
2021/06/15 15:47:02;;;;;;;3.37;2.67;;;30.20;49.50;;;;;;4988902;28;20458;-86
2021/06/15 15:54:19;;;;;;;4.23;3.20;;;30.30;48.80;;;;;;4922695;29;20494;-86
2021/06/15 15:57:03;;;;;;;4.40;2.80;;;30.40;48.70;;;;;;4929674;29;20485;-86
2021/06/15 15:59:35;;;;;;;4.80;3.50;;;30.10;49.70;;;;;;4926414;29;20450;-86
2021/06/15 16:06:15;;;;;;;6.07;3.00;;;30.00;49.20;;;;;;4921171;29;21373;-84
2021/06/15 16:09:12;;;;;;;3.30;3.00;;;29.70;50.20;;;;;;4915258;29;20454;-86
2021/06/15 16:11:51;;;;;;;3.40;3.07;;;29.90;50.00;;;;;;4899500;29;20452;-86
2021/06/15 16:14:34;;;;;;;3.40;3.00;;;29.90;50.30;;;;;;4910302;29;20481;-86
2021/06/15 16:17:35;;;;;;;4.10;3.10;;;29.90;50.00;;;;;;4895919;29;20691;-85
2021/06/15 16:20:15;;;;;;;3.57;3.00;;;29.90;49.90;;;;;;4923205;29;20461;-86
2021/06/15 16:29:34;;;;;;;3.23;2.93;;;30.00;49.80;;;;;;4939344;29;20452;-86
2021/06/15 16:35:30;;;;;;;3.30;3.00;;;29.90;50.20;;;;;;4944264;29;20485;-86
2021/06/15 16:38:27;;;;;;;4.30;3.90;;;30.10;50.00;;;;;;4938053;29;20445;-86
2021/06/15 16:41:07;;;;;;;3.93;2.83;;;30.10;50.30;;;;;;4931413;29;20623;-87
2021/06/15 16:43:49;;;;;;;5.87;3.47;;;29.90;49.80;;;;;;4915811;29;20496;-86
2021/06/15 16:46:56;;;;;;;3.73;2.80;;;29.80;50.20;;;;;;4893946;29;20450;-88
2021/06/15 16:50:19;;;;;;;3.60;3.30;;;30.00;49.90;;;;;;4842367;29;20445;-85
2021/06/15 16:53:11;;;;;;;3.57;3.03;;;29.80;49.80;;;;;;4810763;29;20446;-84
2021/06/15 16:56:16;;;;;;;7.33;3.33;;;29.70;50.10;;;;;;4787621;29;20577;-85
2021/06/15 16:59:07;;;;;;;4.23;3.33;;;29.80;50.10;;;;;;4783396;29;20457;-86
2021/06/15 17:01:47;;;;;;;4.00;2.70;;;29.60;50.70;;;;;;4803654;29;20480;-85
2021/06/15 17:04:46;;;;;;;4.17;3.20;;;29.90;50.30;;;;;;4814971;29;20502;-85
2021/06/15 17:07:45;;;;;;;5.20;2.93;;;29.70;50.30;;;;;;4881765;29;20539;-86
2021/06/15 17:10:28;;;;;;;6.53;3.33;;;29.80;50.00;;;;;;4908983;29;21188;-85
2021/06/15 17:13:15;;;;;;;4.60;3.97;;;29.70;50.20;;;;;;4901051;28;20482;-85
2021/06/15 17:15:43;;;;;;;4.70;3.50;;;29.70;50.10;;;;;;4985559;28;20470;-87
2021/06/15 17:18:13;;;;;;;4.37;2.90;;;29.70;50.10;;;;;;5008354;28;20472;-86
2021/06/15 17:20:48;;;;;;;3.80;3.23;;;29.70;49.80;;;;;;4992148;28;20470;-84
2021/06/15 17:23:47;;;;;;;2.87;2.63;;;29.50;49.70;;;;;;4993952;28;20528;-83